Presque Isle, Maine
Current Conditions -  °F | °C
As of 10:55 AM on Sunday 21 Dec 2014 (Local Time) from KPQI Reporting Station
Overcast Overcast  
Wind Chill: 21°   Ceiling: 1800
Heat Index: 21°   Visibility: 10mi
Dew Point: 21°   Wind: 3mph
Humidity: 100%   Direction: 260°W
Pressure: 30.36"   Gusts: NA
Location:  46.68°N, 68.01°W
Report Text: KPQI 211555Z AUTO 26003KT 10SM FEW009 OVC018 M06/M06 A3036 RMK AO1
Loading
Personal Weather Stations






























Interactive Weather Map New forecast layout! Learn more

10-Day Weather Forecast

Advertisements
Track Severe Weather on mobile